createdAt,value
2023-05-04T00:00:50.352Z,1023.08
2023-05-04T00:01:50.347Z,1023.11
2023-05-04T00:02:50.421Z,1023.08
2023-05-04T00:03:50.577Z,1023.13
2023-05-04T00:04:50.405Z,1023.14
2023-05-04T00:05:50.366Z,1023.11
2023-05-04T00:06:50.360Z,1023.15
2023-05-04T00:07:50.357Z,1023.18
2023-05-04T00:08:50.360Z,1023.17
2023-05-04T00:09:50.360Z,1023.18
2023-05-04T00:10:50.372Z,1023.16
2023-05-04T00:11:50.378Z,1023.19
2023-05-04T00:12:50.396Z,1023.20
2023-05-04T00:13:50.370Z,1023.18
2023-05-04T00:14:50.367Z,1023.17
2023-05-04T00:15:50.451Z,1023.20
2023-05-04T00:16:50.459Z,1023.22
2023-05-04T00:17:50.430Z,1023.19
2023-05-04T00:18:50.386Z,1023.18
2023-05-04T00:19:50.402Z,1023.19
2023-05-04T00:20:50.380Z,1023.20
2023-05-04T00:21:50.391Z,1023.17
2023-05-04T00:22:50.391Z,1023.18
2023-05-04T00:23:50.387Z,1023.19
2023-05-04T00:24:50.390Z,1023.23
2023-05-04T00:25:50.401Z,1023.22
2023-05-04T00:26:50.399Z,1023.21
2023-05-04T00:27:50.404Z,1023.25
2023-05-04T00:28:50.402Z,1023.25
2023-05-04T00:29:50.407Z,1023.26
2023-05-04T00:30:50.409Z,1023.28
2023-05-04T00:31:50.499Z,1023.29
2023-05-04T00:32:50.436Z,1023.30
2023-05-04T00:33:50.413Z,1023.31
2023-05-04T00:34:50.411Z,1023.31
2023-05-04T00:35:50.431Z,1023.33
2023-05-04T00:36:50.435Z,1023.32
2023-05-04T00:37:50.421Z,1023.31
2023-05-04T00:38:50.422Z,1023.37
2023-05-04T00:39:50.428Z,1023.37
2023-05-04T00:40:50.420Z,1023.39
2023-05-04T00:41:50.426Z,1023.39
2023-05-04T00:42:50.427Z,1023.40
2023-05-04T00:43:50.434Z,1023.41
2023-05-04T00:44:50.441Z,1023.42
2023-05-04T00:45:50.437Z,1023.46
2023-05-04T00:46:50.496Z,1023.48
2023-05-04T00:47:50.466Z,1023.46
2023-05-04T00:48:50.444Z,1023.53
2023-05-04T00:49:50.440Z,1023.56
2023-05-04T00:50:50.441Z,1023.53
2023-05-04T00:51:50.453Z,1023.57
2023-05-04T00:52:50.449Z,1023.55
2023-05-04T00:53:50.456Z,1023.57
2023-05-04T00:54:50.449Z,1023.59
2023-05-04T00:55:50.458Z,1023.58
2023-05-04T00:56:50.472Z,1023.64
2023-05-04T00:57:50.476Z,1023.60
2023-05-04T00:58:50.462Z,1023.57
2023-05-04T00:59:50.460Z,1023.59
2023-05-04T01:00:50.526Z,1023.61
2023-05-04T01:01:50.472Z,1023.59
2023-05-04T01:02:50.527Z,1023.62
2023-05-04T01:03:50.550Z,1023.66
2023-05-04T01:04:50.475Z,1023.68
2023-05-04T01:05:50.479Z,1023.70
2023-05-04T01:06:50.479Z,1023.69
2023-05-04T01:07:50.481Z,1023.69
2023-05-04T01:08:50.487Z,1023.69
2023-05-04T01:09:50.480Z,1023.72
2023-05-04T01:10:50.481Z,1023.74
2023-05-04T01:11:50.491Z,1023.77
2023-05-04T01:12:50.523Z,1023.74
2023-05-04T01:13:50.492Z,1023.74
2023-05-04T01:14:50.492Z,1023.82
2023-05-04T01:15:50.503Z,1023.85
2023-05-04T01:16:50.511Z,1023.83
2023-05-04T01:17:50.561Z,1023.88
2023-05-04T01:18:50.501Z,1023.92
2023-05-04T01:19:50.529Z,1023.89
2023-05-04T01:20:50.506Z,1023.91
2023-05-04T01:21:50.508Z,1023.99
2023-05-04T01:22:50.509Z,1023.96
2023-05-04T01:23:50.513Z,1023.96
2023-05-04T01:24:50.520Z,1023.99
2023-05-04T01:25:50.530Z,1024.02
2023-05-04T01:26:50.525Z,1024.00
2023-05-04T01:27:50.523Z,1024.00
2023-05-04T01:28:50.524Z,1024.03
2023-05-04T01:29:50.520Z,1024.02
2023-05-04T01:30:50.534Z,1024.01
2023-05-04T01:31:50.527Z,1024.00
2023-05-04T01:32:50.576Z,1024.02
2023-05-04T01:33:50.532Z,1024.05
2023-05-04T01:34:50.533Z,1024.07
2023-05-04T01:35:50.558Z,1024.04
2023-05-04T01:36:50.531Z,1024.05
2023-05-04T01:37:50.543Z,1024.00
2023-05-04T01:38:50.548Z,1024.02
2023-05-04T01:39:50.538Z,1024.08
2023-05-04T01:40:50.544Z,1024.06
2023-05-04T01:41:50.545Z,1024.09
2023-05-04T01:42:50.547Z,1024.09
2023-05-04T01:43:50.543Z,1024.12
2023-05-04T01:44:50.557Z,1024.15
2023-05-04T01:45:50.573Z,1024.15
2023-05-04T01:46:50.552Z,1024.14
2023-05-04T01:47:50.598Z,1024.18
2023-05-04T01:48:50.561Z,1024.17
2023-05-04T01:49:50.556Z,1024.18
2023-05-04T01:50:50.558Z,1024.19
2023-05-04T01:51:50.600Z,1024.19
2023-05-04T01:52:50.568Z,1024.21
2023-05-04T01:53:50.576Z,1024.24
2023-05-04T01:54:50.578Z,1024.23
2023-05-04T01:55:50.570Z,1024.22
2023-05-04T01:56:50.565Z,1024.20
2023-05-04T01:57:50.572Z,1024.26
2023-05-04T01:58:50.884Z,1024.29
2023-05-04T01:59:50.579Z,1024.28
2023-05-04T02:00:50.576Z,1024.23
2023-05-04T02:01:50.594Z,1024.25
2023-05-04T02:02:50.652Z,1024.25
2023-05-04T02:03:50.655Z,1024.25
2023-05-04T02:04:50.587Z,1024.27
2023-05-04T02:05:50.589Z,1024.26
2023-05-04T02:06:50.589Z,1024.34
2023-05-04T02:07:50.617Z,1024.34
2023-05-04T02:08:50.600Z,1024.34
2023-05-04T02:09:50.592Z,1024.33
2023-05-04T02:10:50.591Z,1024.35
2023-05-04T02:11:50.598Z,1024.34
2023-05-04T02:12:50.682Z,1024.37
2023-05-04T02:13:50.752Z,1024.36
2023-05-04T02:14:50.602Z,1024.36
2023-05-04T02:15:50.627Z,1024.41
2023-05-04T02:16:50.607Z,1024.43
2023-05-04T02:17:50.663Z,1024.39
2023-05-04T02:18:50.917Z,1024.43
2023-05-04T02:19:50.615Z,1024.42
2023-05-04T02:20:50.627Z,1024.49
2023-05-04T02:21:50.617Z,1024.47
2023-05-04T02:22:50.620Z,1024.48
2023-05-04T02:23:50.764Z,1024.48
2023-05-04T02:24:50.624Z,1024.49
2023-05-04T02:25:50.625Z,1024.47
2023-05-04T02:26:50.630Z,1024.52
2023-05-04T02:27:50.626Z,1024.55
2023-05-04T02:28:50.630Z,1024.51
2023-05-04T02:29:50.636Z,1024.55
2023-05-04T02:30:50.635Z,1024.57
2023-05-04T02:31:50.706Z,1024.55
2023-05-04T02:32:50.651Z,1024.56
2023-05-04T02:33:50.649Z,1024.57
2023-05-04T02:34:50.641Z,1024.59
2023-05-04T02:35:50.647Z,1024.58
2023-05-04T02:36:50.645Z,1024.59
2023-05-04T02:37:50.650Z,1024.64
2023-05-04T02:38:50.717Z,1024.66
2023-05-04T02:39:50.682Z,1024.63
2023-05-04T02:40:50.657Z,1024.66
2023-05-04T02:41:50.653Z,1024.73
2023-05-04T02:42:50.659Z,1024.69
2023-05-04T02:43:50.656Z,1024.76
2023-05-04T02:44:50.661Z,1024.74
2023-05-04T02:45:50.700Z,1024.70
2023-05-04T02:46:50.669Z,1024.76
2023-05-04T02:47:50.723Z,1024.79
2023-05-04T02:48:50.663Z,1024.77
2023-05-04T02:49:50.691Z,1024.78
2023-05-04T02:50:50.672Z,1024.84
2023-05-04T02:51:50.678Z,1024.81
2023-05-04T02:52:50.683Z,1024.82
2023-05-04T02:53:50.732Z,1024.79
2023-05-04T02:54:52.991Z,1024.81
2023-05-04T02:55:50.709Z,1024.85
2023-05-04T02:56:50.684Z,1024.84
2023-05-04T02:57:50.685Z,1024.84
2023-05-04T02:58:50.688Z,1024.85
2023-05-04T02:59:50.689Z,1024.86
2023-05-04T03:00:50.709Z,1024.91
2023-05-04T03:01:50.898Z,1024.87
2023-05-04T03:02:50.713Z,1024.89
2023-05-04T03:03:51.045Z,1024.92
2023-05-04T03:04:50.710Z,1024.91
2023-05-04T03:05:50.699Z,1024.95
2023-05-04T03:06:50.705Z,1024.92
2023-05-04T03:07:50.706Z,1024.92
2023-05-04T03:08:50.725Z,1024.94
2023-05-04T03:09:50.707Z,1024.95
2023-05-04T03:10:50.712Z,1024.98
2023-05-04T03:11:50.733Z,1024.95
2023-05-04T03:12:50.755Z,1024.97
2023-05-04T03:13:50.717Z,1024.99
2023-05-04T03:14:50.720Z,1024.92
2023-05-04T03:15:50.719Z,1024.97
2023-05-04T03:16:50.752Z,1024.98
2023-05-04T03:17:50.772Z,1024.96
2023-05-04T03:18:56.998Z,1024.95
2023-05-04T03:19:50.726Z,1024.99
2023-05-04T03:20:50.737Z,1025.02
2023-05-04T03:21:50.729Z,1024.99
2023-05-04T03:22:50.731Z,1025.02
2023-05-04T03:23:50.736Z,1025.01
2023-05-04T03:24:50.738Z,1024.96
2023-05-04T03:25:50.735Z,1025.02
2023-05-04T03:26:50.746Z,1025.02
2023-05-04T03:27:50.771Z,1025.05
2023-05-04T03:28:50.747Z,1025.07
2023-05-04T03:29:50.746Z,1025.08
2023-05-04T03:30:50.749Z,1025.09
2023-05-04T03:31:50.772Z,1025.08
2023-05-04T03:32:50.771Z,1025.07
2023-05-04T03:33:50.757Z,1025.12
2023-05-04T03:34:50.755Z,1025.14
2023-05-04T03:35:50.753Z,1025.14
2023-05-04T03:36:50.756Z,1025.18
2023-05-04T03:37:50.763Z,1025.15
2023-05-04T03:38:50.810Z,1025.20
2023-05-04T03:39:50.763Z,1025.15
2023-05-04T03:40:50.770Z,1025.19
2023-05-04T03:41:50.763Z,1025.20
2023-05-04T03:42:50.779Z,1025.19
2023-05-04T03:43:50.808Z,1025.25
2023-05-04T03:44:50.781Z,1025.20
2023-05-04T03:45:50.851Z,1025.25
2023-05-04T03:46:50.774Z,1025.29
2023-05-04T03:47:50.803Z,1025.30
2023-05-04T03:48:50.783Z,1025.30
2023-05-04T03:49:50.783Z,1025.29
2023-05-04T03:50:50.792Z,1025.32
2023-05-04T03:51:50.782Z,1025.32
2023-05-04T03:52:50.787Z,1025.32
2023-05-04T03:53:50.790Z,1025.32
2023-05-04T03:54:50.787Z,1025.31
2023-05-04T03:55:50.791Z,1025.33
2023-05-04T03:56:50.802Z,1025.36
2023-05-04T03:57:50.799Z,1025.36
2023-05-04T03:58:50.852Z,1025.33
2023-05-04T03:59:50.829Z,1025.33
2023-05-04T04:00:50.803Z,1025.37
2023-05-04T04:01:50.824Z,1025.37
2023-05-04T04:02:50.881Z,1025.40
2023-05-04T04:03:50.937Z,1025.39
2023-05-04T04:04:50.812Z,1025.35
2023-05-04T04:05:50.814Z,1025.34
2023-05-04T04:06:50.808Z,1025.38
2023-05-04T04:07:50.818Z,1025.35
2023-05-04T04:08:50.821Z,1025.36
2023-05-04T04:09:50.817Z,1025.38
2023-05-04T04:10:50.829Z,1025.42
2023-05-04T04:11:50.824Z,1025.41
2023-05-04T04:12:50.855Z,1025.45
2023-05-04T04:13:51.024Z,1025.39
2023-05-04T04:14:50.827Z,1025.40
2023-05-04T04:15:50.933Z,1025.44
2023-05-04T04:16:50.835Z,1025.44
2023-05-04T04:17:50.886Z,1025.46
2023-05-04T04:18:50.833Z,1025.43
2023-05-04T04:19:50.836Z,1025.43
2023-05-04T04:20:50.843Z,1025.48
2023-05-04T04:21:50.841Z,1025.48
2023-05-04T04:22:50.842Z,1025.47
2023-05-04T04:23:50.994Z,1025.49
2023-05-04T04:24:50.847Z,1025.48
2023-05-04T04:25:50.851Z,1025.44
2023-05-04T04:26:50.851Z,1025.47
2023-05-04T04:27:50.848Z,1025.47
2023-05-04T04:28:50.953Z,1025.50
2023-05-04T04:29:50.867Z,1025.50
2023-05-04T04:30:50.858Z,1025.51
2023-05-04T04:31:50.904Z,1025.47
2023-05-04T04:32:50.912Z,1025.49
2023-05-04T04:33:50.863Z,1025.55
2023-05-04T04:34:50.870Z,1025.51
2023-05-04T04:35:50.865Z,1025.49
2023-05-04T04:36:50.879Z,1025.51
2023-05-04T04:37:50.876Z,1025.50
2023-05-04T04:38:50.869Z,1025.56
2023-05-04T04:39:50.874Z,1025.49
2023-05-04T04:40:50.872Z,1025.50
2023-05-04T04:41:50.876Z,1025.52
2023-05-04T04:42:50.884Z,1025.53
2023-05-04T04:43:50.890Z,1025.54
2023-05-04T04:44:50.888Z,1025.56
2023-05-04T04:45:50.879Z,1025.55
2023-05-04T04:46:50.946Z,1025.52
2023-05-04T04:47:50.949Z,1025.58
2023-05-04T04:48:50.890Z,1025.58
2023-05-04T04:49:50.904Z,1025.60
2023-05-04T04:50:50.903Z,1025.57
2023-05-04T04:51:50.910Z,1025.62
2023-05-04T04:52:50.895Z,1025.67
2023-05-04T04:53:50.899Z,1025.64
2023-05-04T04:54:50.904Z,1025.61
2023-05-04T04:55:50.904Z,1025.62
2023-05-04T04:56:50.914Z,1025.59
2023-05-04T04:57:50.908Z,1025.64
2023-05-04T04:58:50.910Z,1025.60
2023-05-04T04:59:50.911Z,1025.61
2023-05-04T05:00:50.916Z,1025.63
2023-05-04T05:01:50.916Z,1025.59
2023-05-04T05:02:50.995Z,1025.63
2023-05-04T05:03:50.953Z,1025.66
2023-05-04T05:04:50.952Z,1025.64
2023-05-04T05:05:50.921Z,1025.66
2023-05-04T05:06:50.925Z,1025.66
2023-05-04T05:07:50.928Z,1025.62
2023-05-04T05:08:50.931Z,1025.65
2023-05-04T05:09:50.928Z,1025.63
2023-05-04T05:10:50.951Z,1025.62
2023-05-04T05:11:50.942Z,1025.62
2023-05-04T05:12:50.988Z,1025.64
2023-05-04T05:13:50.937Z,1025.63
2023-05-04T05:14:51.092Z,1025.71
2023-05-04T05:15:50.952Z,1025.70
2023-05-04T05:16:50.969Z,1025.69
2023-05-04T05:17:51.027Z,1025.67
2023-05-04T05:18:50.949Z,1025.69
2023-05-04T05:19:51.107Z,1025.71
2023-05-04T05:20:50.957Z,1025.70
2023-05-04T05:21:50.952Z,1025.69
2023-05-04T05:22:50.959Z,1025.75
2023-05-04T05:23:50.963Z,1025.69
2023-05-04T05:24:50.976Z,1025.72
2023-05-04T05:25:50.959Z,1025.72
2023-05-04T05:26:50.966Z,1025.68
2023-05-04T05:27:50.981Z,1025.67
2023-05-04T05:28:50.969Z,1025.68
2023-05-04T05:29:50.963Z,1025.67
2023-05-04T05:30:51.012Z,1025.66
2023-05-04T05:31:50.985Z,1025.66
2023-05-04T05:32:50.991Z,1025.68
2023-05-04T05:33:51.005Z,1025.67
2023-05-04T05:34:50.982Z,1025.64
2023-05-04T05:35:51.043Z,1025.65
2023-05-04T05:36:51.003Z,1025.68
2023-05-04T05:37:50.988Z,1025.65
2023-05-04T05:38:50.985Z,1025.68
2023-05-04T05:39:50.985Z,1025.70
2023-05-04T05:40:50.988Z,1025.70
2023-05-04T05:41:50.992Z,1025.69
2023-05-04T05:42:50.988Z,1025.71
2023-05-04T05:43:51.052Z,1025.69
2023-05-04T05:44:51.004Z,1025.69
2023-05-04T05:45:51.018Z,1025.69
2023-05-04T05:46:51.015Z,1025.71
2023-05-04T05:47:51.019Z,1025.68
2023-05-04T05:48:51.003Z,1025.71
2023-05-04T05:49:51.015Z,1025.67
2023-05-04T05:50:51.013Z,1025.65
2023-05-04T05:51:51.028Z,1025.67
2023-05-04T05:52:51.016Z,1025.74
2023-05-04T05:53:51.011Z,1025.74
2023-05-04T05:54:51.026Z,1025.71
2023-05-04T05:55:51.013Z,1025.73
2023-05-04T05:56:51.024Z,1025.77
2023-05-04T05:57:51.014Z,1025.75
2023-05-04T05:58:51.028Z,1025.76
2023-05-04T05:59:51.023Z,1025.78
2023-05-04T06:00:51.024Z,1025.77
2023-05-04T06:01:51.026Z,1025.77
2023-05-04T06:02:51.115Z,1025.77
2023-05-04T06:03:51.245Z,1025.80
2023-05-04T06:04:51.081Z,1025.77
2023-05-04T06:05:51.034Z,1025.82
2023-05-04T06:06:51.040Z,1025.78
2023-05-04T06:07:51.083Z,1025.79
2023-05-04T06:08:51.050Z,1025.76
2023-05-04T06:09:51.046Z,1025.81
2023-05-04T06:10:51.055Z,1025.83
2023-05-04T06:11:51.895Z,1025.84
2023-05-04T06:12:51.085Z,1025.82
2023-05-04T06:13:51.056Z,1025.82
2023-05-04T06:14:51.058Z,1025.83
2023-05-04T06:15:51.085Z,1025.81
2023-05-04T06:16:51.057Z,1025.83
2023-05-04T06:17:51.064Z,1025.79
2023-05-04T06:18:51.062Z,1025.81
2023-05-04T06:19:51.097Z,1025.78
2023-05-04T06:20:51.062Z,1025.80
2023-05-04T06:21:51.076Z,1025.81
2023-05-04T06:22:51.072Z,1025.79
2023-05-04T06:23:51.216Z,1025.78
2023-05-04T06:24:51.076Z,1025.80
2023-05-04T06:25:51.076Z,1025.79
2023-05-04T06:26:51.072Z,1025.80
2023-05-04T06:27:51.189Z,1025.80
2023-05-04T06:28:51.125Z,1025.85
2023-05-04T06:29:51.096Z,1025.81
2023-05-04T06:30:51.080Z,1025.81
2023-05-04T06:31:51.136Z,1025.85
2023-05-04T06:32:51.154Z,1025.82
2023-05-04T06:33:51.091Z,1025.80
2023-05-04T06:34:51.084Z,1025.79
2023-05-04T06:35:51.108Z,1025.82
2023-05-04T06:36:51.086Z,1025.79
2023-05-04T06:38:51.094Z,1025.86
2023-05-04T06:39:51.124Z,1025.78
2023-05-04T06:40:51.109Z,1025.82
2023-05-04T06:41:51.099Z,1025.79
2023-05-04T06:42:51.101Z,1025.81
2023-05-04T06:43:51.107Z,1025.77
2023-05-04T06:44:51.108Z,1025.79
2023-05-04T06:45:51.168Z,1025.80
2023-05-04T06:46:51.107Z,1025.82
2023-05-04T06:47:51.141Z,1025.78
2023-05-04T06:48:51.114Z,1025.80
2023-05-04T06:49:51.110Z,1025.77
2023-05-04T06:50:51.120Z,1025.81
2023-05-04T06:51:51.121Z,1025.76
2023-05-04T06:52:51.146Z,1025.72
2023-05-04T06:53:51.156Z,1025.76
2023-05-04T06:54:51.135Z,1025.76
2023-05-04T06:55:51.168Z,1025.71
2023-05-04T06:56:51.127Z,1025.75
2023-05-04T06:57:51.132Z,1025.69
2023-05-04T06:58:51.133Z,1025.75
2023-05-04T06:59:51.134Z,1025.70
2023-05-04T07:00:51.161Z,1025.74
2023-05-04T07:01:51.135Z,1025.72
2023-05-04T07:02:51.165Z,1025.77
2023-05-04T07:03:51.173Z,1025.72
2023-05-04T07:04:51.144Z,1025.72
2023-05-04T07:05:51.162Z,1025.74
2023-05-04T07:06:51.154Z,1025.78
2023-05-04T07:07:51.481Z,1025.71
2023-05-04T07:08:51.301Z,1025.76
2023-05-04T07:09:51.152Z,1025.78
2023-05-04T07:10:51.157Z,1025.74
2023-05-04T07:11:51.186Z,1025.80
2023-05-04T07:12:51.185Z,1025.74
2023-05-04T07:13:51.157Z,1025.76
2023-05-04T07:14:51.168Z,1025.71
2023-05-04T07:15:51.186Z,1025.67
2023-05-04T07:16:51.177Z,1025.74
2023-05-04T07:17:51.216Z,1025.68
2023-05-04T07:18:51.197Z,1025.73
2023-05-04T07:19:51.175Z,1025.76
2023-05-04T07:20:51.352Z,1025.80
2023-05-04T07:21:51.174Z,1025.76
2023-05-04T07:22:51.174Z,1025.78
2023-05-04T07:23:51.228Z,1025.78
2023-05-04T07:24:51.182Z,1025.80
2023-05-04T07:25:53.169Z,1025.81
2023-05-04T07:26:51.188Z,1025.84
2023-05-04T07:27:51.771Z,1025.81
2023-05-04T07:28:51.496Z,1025.77
2023-05-04T07:29:51.197Z,1025.72
2023-05-04T07:30:51.190Z,1025.72
2023-05-04T07:31:51.229Z,1025.69
2023-05-04T07:32:51.236Z,1025.65
2023-05-04T07:33:51.197Z,1025.69
2023-05-04T07:34:51.196Z,1025.70
2023-05-04T07:35:51.198Z,1025.75
2023-05-04T07:36:51.208Z,1025.74
2023-05-04T07:37:51.206Z,1025.76
2023-05-04T07:38:51.207Z,1025.79
2023-05-04T07:39:51.212Z,1025.82
2023-05-04T07:40:51.219Z,1025.75
2023-05-04T07:41:51.217Z,1025.71
2023-05-04T07:42:51.222Z,1025.73
2023-05-04T07:43:51.247Z,1025.75
2023-05-04T07:44:51.222Z,1025.67
2023-05-04T07:45:51.288Z,1025.66
2023-05-04T07:46:51.398Z,1025.72
2023-05-04T07:47:52.588Z,1025.72
2023-05-04T07:48:51.226Z,1025.66
2023-05-04T07:49:51.225Z,1025.70
2023-05-04T07:50:51.251Z,1025.65
2023-05-04T07:51:51.239Z,1025.68
2023-05-04T07:52:51.235Z,1025.75
2023-05-04T07:53:51.250Z,1025.71
2023-05-04T07:54:51.241Z,1025.79
2023-05-04T07:55:51.236Z,1025.76
2023-05-04T07:56:51.245Z,1025.81
2023-05-04T07:57:51.245Z,1025.79
2023-05-04T07:58:51.245Z,1025.80
2023-05-04T07:59:51.336Z,1025.78
2023-05-04T08:00:51.249Z,1025.81
2023-05-04T08:01:51.262Z,1025.80
2023-05-04T08:02:51.350Z,1025.85
2023-05-04T08:03:51.256Z,1025.83
2023-05-04T08:04:51.265Z,1025.78
2023-05-04T08:05:51.260Z,1025.76
2023-05-04T08:07:51.278Z,1025.79
2023-05-04T08:08:52.911Z,1025.77
2023-05-04T08:09:51.281Z,1025.78
2023-05-04T08:10:51.268Z,1025.74
2023-05-04T08:11:51.274Z,1025.70
2023-05-04T08:12:51.322Z,1025.65
2023-05-04T08:13:51.283Z,1025.66
2023-05-04T08:14:51.280Z,1025.61
2023-05-04T08:15:51.319Z,1025.66
2023-05-04T08:16:51.283Z,1025.56
2023-05-04T08:17:51.310Z,1025.58
2023-05-04T08:18:51.287Z,1025.60
2023-05-04T08:19:51.293Z,1025.59
2023-05-04T08:20:51.291Z,1025.67
2023-05-04T08:21:51.305Z,1025.69
2023-05-04T08:22:51.293Z,1025.65
2023-05-04T08:23:51.304Z,1025.69
2023-05-04T08:24:51.298Z,1025.73
2023-05-04T08:25:51.301Z,1025.65
2023-05-04T08:27:03.749Z,1025.74
2023-05-04T08:27:51.321Z,1025.75
2023-05-04T08:28:51.310Z,1025.65
2023-05-04T08:29:51.314Z,1025.65
2023-05-04T08:30:51.340Z,1025.64
2023-05-04T08:31:51.384Z,1025.61
2023-05-04T08:32:51.393Z,1025.63
2023-05-04T08:33:51.326Z,1025.62
2023-05-04T08:34:51.329Z,1025.55
2023-05-04T08:35:51.328Z,1025.61
2023-05-04T08:36:51.324Z,1025.56
2023-05-04T08:37:51.347Z,1025.59
2023-05-04T08:38:51.329Z,1025.60
2023-05-04T08:39:51.346Z,1025.57
2023-05-04T08:40:51.335Z,1025.62
2023-05-04T08:41:51.340Z,1025.58
2023-05-04T08:42:51.344Z,1025.53
2023-05-04T08:43:51.355Z,1025.60
2023-05-04T08:44:51.353Z,1025.62
2023-05-04T08:45:51.392Z,1025.72
2023-05-04T08:46:51.352Z,1025.63
2023-05-04T08:47:51.613Z,1025.59
2023-05-04T08:48:51.369Z,1025.61
2023-05-04T08:49:51.360Z,1025.65
2023-05-04T08:50:51.363Z,1025.67
2023-05-04T08:51:51.365Z,1025.60
2023-05-04T08:52:51.362Z,1025.69
2023-05-04T08:53:51.377Z,1025.66
2023-05-04T08:54:51.371Z,1025.66
2023-05-04T08:55:51.370Z,1025.69
2023-05-04T08:56:51.420Z,1025.61
2023-05-04T08:57:51.385Z,1025.65
2023-05-04T08:58:51.425Z,1025.69
2023-05-04T08:59:51.384Z,1025.64
2023-05-04T09:00:51.446Z,1025.66
2023-05-04T09:01:51.430Z,1025.67
2023-05-04T09:02:51.558Z,1025.59
2023-05-04T09:03:51.587Z,1025.65
2023-05-04T09:04:51.382Z,1025.66
2023-05-04T09:05:51.522Z,1025.67
2023-05-04T09:06:51.387Z,1025.67
2023-05-04T09:07:51.390Z,1025.69
2023-05-04T09:08:51.397Z,1025.78
2023-05-04T09:09:51.397Z,1025.76
2023-05-04T09:10:51.391Z,1025.75
2023-05-04T09:11:51.409Z,1025.82
2023-05-04T09:12:51.436Z,1025.82
2023-05-04T09:13:51.420Z,1025.81
2023-05-04T09:14:51.413Z,1025.76
2023-05-04T09:15:51.412Z,1025.83
2023-05-04T09:16:51.441Z,1025.79
2023-05-04T09:18:51.420Z,1025.87
2023-05-04T09:19:51.447Z,1025.90
2023-05-04T09:20:51.428Z,1025.83
2023-05-04T09:21:51.426Z,1025.84
2023-05-04T09:22:51.424Z,1025.80
2023-05-04T09:23:51.728Z,1025.84
2023-05-04T09:24:51.429Z,1025.90
2023-05-04T09:25:51.434Z,1025.90
2023-05-04T09:26:51.434Z,1025.94
2023-05-04T09:27:51.446Z,1025.96
2023-05-04T09:28:51.441Z,1025.93
2023-05-04T09:29:51.445Z,1025.99
2023-05-04T09:30:51.466Z,1025.97
2023-05-04T09:31:51.468Z,1025.94
2023-05-04T09:32:51.548Z,1025.85
2023-05-04T09:33:53.367Z,1025.86
2023-05-04T09:34:51.460Z,1025.91
2023-05-04T09:35:51.489Z,1025.90
2023-05-04T09:36:51.464Z,1025.95
2023-05-04T09:37:51.462Z,1025.88
2023-05-04T09:38:51.459Z,1025.86
2023-05-04T09:39:51.468Z,1025.86
2023-05-04T09:40:51.479Z,1025.86
2023-05-04T09:41:51.473Z,1025.84
2023-05-04T09:42:51.478Z,1025.89
2023-05-04T09:43:51.540Z,1025.84
2023-05-04T09:44:51.484Z,1025.83
2023-05-04T09:45:51.575Z,1025.82
2023-05-04T09:46:51.520Z,1025.87
2023-05-04T09:47:51.524Z,1025.86
2023-05-04T09:48:51.493Z,1025.96
2023-05-04T09:49:51.493Z,1025.89
2023-05-04T09:50:51.493Z,1025.90
2023-05-04T09:51:51.533Z,1025.88
2023-05-04T09:52:51.493Z,1025.90
2023-05-04T09:53:51.503Z,1025.90
2023-05-04T09:54:51.506Z,1025.89
2023-05-04T09:55:51.511Z,1025.91
2023-05-04T09:56:51.508Z,1025.95
2023-05-04T09:57:51.514Z,1025.93
2023-05-04T09:58:51.514Z,1025.82
2023-05-04T09:59:51.512Z,1025.84
2023-05-04T10:00:51.517Z,1025.96
2023-05-04T10:01:51.542Z,1025.86
2023-05-04T10:02:51.567Z,1025.92
2023-05-04T10:03:51.524Z,1025.87
2023-05-04T10:04:51.563Z,1025.87
2023-05-04T10:05:51.682Z,1025.83
2023-05-04T10:06:51.529Z,1025.77
2023-05-04T10:07:51.589Z,1025.84
2023-05-04T10:08:51.541Z,1025.91
2023-05-04T10:09:51.544Z,1025.84
2023-05-04T10:10:51.550Z,1025.82
2023-05-04T10:11:51.548Z,1025.79
2023-05-04T10:12:51.599Z,1025.76
2023-05-04T10:13:51.555Z,1025.70
2023-05-04T10:14:51.559Z,1025.73
2023-05-04T10:15:51.609Z,1025.75
2023-05-04T10:16:51.579Z,1025.71
2023-05-04T10:17:51.594Z,1025.76
2023-05-04T10:18:51.574Z,1025.72
2023-05-04T10:19:51.577Z,1025.74
2023-05-04T10:20:51.584Z,1025.76
2023-05-04T10:21:51.591Z,1025.74
2023-05-04T10:22:51.593Z,1025.75
2023-05-04T10:23:51.612Z,1025.76
2023-05-04T10:24:51.596Z,1025.67
2023-05-04T10:25:51.597Z,1025.72
2023-05-04T10:26:51.602Z,1025.72
2023-05-04T10:27:51.616Z,1025.64
2023-05-04T10:28:51.648Z,1025.91
2023-05-04T10:29:51.615Z,1026.03
2023-05-04T10:30:51.620Z,1026.12
2023-05-04T10:31:51.652Z,1026.10
2023-05-04T10:32:51.684Z,1026.19
2023-05-04T10:33:51.624Z,1026.10
2023-05-04T10:34:51.628Z,1026.00
2023-05-04T10:35:51.633Z,1025.94
2023-05-04T10:36:51.632Z,1025.89
2023-05-04T10:37:51.636Z,1025.94
2023-05-04T10:38:51.638Z,1025.88
2023-05-04T10:39:51.835Z,1025.87
2023-05-04T10:40:51.649Z,1025.86
2023-05-04T10:41:51.645Z,1025.86
2023-05-04T10:42:51.651Z,1025.82
2023-05-04T10:43:51.653Z,1025.81
2023-05-04T10:44:51.660Z,1025.81
2023-05-04T10:45:51.692Z,1025.78
2023-05-04T10:46:51.663Z,1025.76
2023-05-04T10:47:51.669Z,1025.71
2023-05-04T10:48:51.687Z,1025.69
2023-05-04T10:49:51.671Z,1025.65
2023-05-04T10:50:51.677Z,1025.65
2023-05-04T10:51:51.676Z,1025.68
2023-05-04T10:52:51.684Z,1025.66
2023-05-04T10:53:51.682Z,1025.62
2023-05-04T10:54:51.698Z,1025.56
2023-05-04T10:55:51.834Z,1025.61
2023-05-04T10:56:51.696Z,1025.59
2023-05-04T10:57:51.715Z,1025.61
2023-05-04T10:58:51.698Z,1025.63
2023-05-04T10:59:51.702Z,1025.56
2023-05-04T11:00:51.944Z,1025.58
2023-05-04T11:01:51.704Z,1025.60
2023-05-04T11:02:51.838Z,1025.63
2023-05-04T11:03:51.782Z,1025.55
2023-05-04T11:04:51.716Z,1025.62
2023-05-04T11:05:51.720Z,1025.58
2023-05-04T11:06:51.718Z,1025.58
2023-05-04T11:07:51.719Z,1025.53
2023-05-04T11:08:51.727Z,1025.56
2023-05-04T11:09:51.729Z,1025.59
2023-05-04T11:10:51.734Z,1025.72
2023-05-04T11:11:51.761Z,1025.66
2023-05-04T11:12:51.784Z,1025.64
2023-05-04T11:13:51.740Z,1025.71
2023-05-04T11:14:51.740Z,1025.74
2023-05-04T11:15:51.745Z,1025.73
2023-05-04T11:16:51.794Z,1025.73
2023-05-04T11:17:51.787Z,1025.71
2023-05-04T11:18:51.919Z,1025.73
2023-05-04T11:19:51.809Z,1025.70
2023-05-04T11:20:51.755Z,1025.61
2023-05-04T11:21:51.783Z,1025.61
2023-05-04T11:22:51.764Z,1025.56
2023-05-04T11:23:51.767Z,1025.54
2023-05-04T11:24:51.839Z,1025.51
2023-05-04T11:25:51.772Z,1025.57
2023-05-04T11:26:51.772Z,1025.58
2023-05-04T11:27:51.806Z,1025.55
2023-05-04T11:28:51.795Z,1025.54
2023-05-04T11:29:51.783Z,1025.50
2023-05-04T11:30:52.014Z,1025.46
2023-05-04T11:31:51.837Z,1025.41
2023-05-04T11:32:51.831Z,1025.42
2023-05-04T11:33:51.841Z,1025.49
2023-05-04T11:34:51.798Z,1025.41
2023-05-04T11:35:51.798Z,1025.36
2023-05-04T11:36:51.801Z,1025.37
2023-05-04T11:37:51.806Z,1025.39
2023-05-04T11:38:51.816Z,1025.37
2023-05-04T11:39:51.812Z,1025.50
2023-05-04T11:40:51.823Z,1025.37
2023-05-04T11:41:51.816Z,1025.42
2023-05-04T11:42:52.433Z,1025.41
2023-05-04T11:43:51.863Z,1025.48
2023-05-04T11:44:51.825Z,1025.59
2023-05-04T11:45:51.835Z,1025.42
2023-05-04T11:46:51.936Z,1025.47
2023-05-04T11:47:51.864Z,1025.44
2023-05-04T11:48:51.837Z,1025.45
2023-05-04T11:49:51.841Z,1025.46
2023-05-04T11:50:51.844Z,1025.46
2023-05-04T11:51:51.845Z,1025.46
2023-05-04T11:52:51.851Z,1025.46
2023-05-04T11:53:51.848Z,1025.48
2023-05-04T11:54:53.223Z,1025.39
2023-05-04T11:55:51.895Z,1025.37
2023-05-04T11:56:51.860Z,1025.33
2023-05-04T11:57:51.861Z,1025.39
2023-05-04T11:58:51.877Z,1025.35
2023-05-04T11:59:51.895Z,1025.47
2023-05-04T12:00:52.400Z,1025.51
2023-05-04T12:01:51.868Z,1025.47
2023-05-04T12:02:51.949Z,1025.39
2023-05-04T12:03:54.271Z,1025.38
2023-05-04T12:04:51.891Z,1025.52
2023-05-04T12:05:51.996Z,1025.51
2023-05-04T12:06:51.881Z,1025.47
2023-05-04T12:07:51.890Z,1025.42
2023-05-04T12:08:51.891Z,1025.43